sensor_id;sensor_type;location;lat;lon;timestamp;temperature;humidity
44695;DHT22;32845;59.422;17.930;2022-11-24T00:02:40;1.70;99.90
44695;DHT22;32845;59.422;17.930;2022-11-24T00:07:10;1.80;99.90
44695;DHT22;32845;59.422;17.930;2022-11-24T00:11:41;1.80;99.90
44695;DHT22;32845;59.422;17.930;2022-11-24T00:16:12;1.80;99.90
44695;DHT22;32845;59.422;17.930;2022-11-24T00:20:50;1.80;99.90
44695;DHT22;32845;59.422;17.930;2022-11-24T00:25:21;1.80;99.90
44695;DHT22;32845;59.422;17.930;2022-11-24T00:29:51;1.80;99.90
44695;DHT22;32845;59.422;17.930;2022-11-24T00:34:22;1.90;99.90
44695;DHT22;32845;59.422;17.930;2022-11-24T00:38:53;1.90;99.90
44695;DHT22;32845;59.422;17.930;2022-11-24T00:43:24;1.90;99.90
44695;DHT22;32845;59.422;17.930;2022-11-24T00:48:00;1.90;99.90
44695;DHT22;32845;59.422;17.930;2022-11-24T00:52:30;1.90;99.90
44695;DHT22;32845;59.422;17.930;2022-11-24T00:57:01;1.90;99.90
44695;DHT22;32845;59.422;17.930;2022-11-24T01:01:32;1.90;99.90
44695;DHT22;32845;59.422;17.930;2022-11-24T01:06:05;1.90;99.90
44695;DHT22;32845;59.422;17.930;2022-11-24T01:10:37;1.90;99.90
44695;DHT22;32845;59.422;17.930;2022-11-24T01:15:08;1.90;99.90
44695;DHT22;32845;59.422;17.930;2022-11-24T01:19:38;1.90;99.90
44695;DHT22;32845;59.422;17.930;2022-11-24T01:24:09;1.90;99.90
44695;DHT22;32845;59.422;17.930;2022-11-24T01:28:40;1.90;99.90
44695;DHT22;32845;59.422;17.930;2022-11-24T01:33:10;1.90;99.90
44695;DHT22;32845;59.422;17.930;2022-11-24T01:37:41;1.90;99.90
44695;DHT22;32845;59.422;17.930;2022-11-24T01:42:12;1.90;99.90
44695;DHT22;32845;59.422;17.930;2022-11-24T01:46:52;1.90;99.90
44695;DHT22;32845;59.422;17.930;2022-11-24T01:51:25;1.90;99.90
44695;DHT22;32845;59.422;17.930;2022-11-24T01:55:57;1.90;99.90
44695;DHT22;32845;59.422;17.930;2022-11-24T02:00:28;1.90;99.90
44695;DHT22;32845;59.422;17.930;2022-11-24T02:05:00;1.90;99.90
44695;DHT22;32845;59.422;17.930;2022-11-24T02:09:33;1.90;99.90
44695;DHT22;32845;59.422;17.930;2022-11-24T02:14:06;1.90;99.90
44695;DHT22;32845;59.422;17.930;2022-11-24T02:18:42;1.90;99.90
44695;DHT22;32845;59.422;17.930;2022-11-24T02:23:18;2.00;99.90
44695;DHT22;32845;59.422;17.930;2022-11-24T02:28:04;2.00;99.90
44695;DHT22;32845;59.422;17.930;2022-11-24T02:32:37;2.00;99.90
44695;DHT22;32845;59.422;17.930;2022-11-24T02:37:09;1.90;99.90
44695;DHT22;32845;59.422;17.930;2022-11-24T02:41:44;2.00;99.90
44695;DHT22;32845;59.422;17.930;2022-11-24T02:46:16;1.90;99.90
44695;DHT22;32845;59.422;17.930;2022-11-24T02:50:46;1.90;99.90
44695;DHT22;32845;59.422;17.930;2022-11-24T02:55:17;1.90;99.90
44695;DHT22;32845;59.422;17.930;2022-11-24T02:59:48;1.90;99.90
44695;DHT22;32845;59.422;17.930;2022-11-24T03:04:23;1.90;99.90
44695;DHT22;32845;59.422;17.930;2022-11-24T03:08:54;1.90;99.90
44695;DHT22;32845;59.422;17.930;2022-11-24T03:13:24;1.90;99.90
44695;DHT22;32845;59.422;17.930;2022-11-24T03:18:05;1.90;99.90
44695;DHT22;32845;59.422;17.930;2022-11-24T03:22:36;1.90;99.90
44695;DHT22;32845;59.422;17.930;2022-11-24T03:27:06;1.90;99.90
44695;DHT22;32845;59.422;17.930;2022-11-24T03:31:37;1.90;99.90
44695;DHT22;32845;59.422;17.930;2022-11-24T03:36:08;1.90;99.90
44695;DHT22;32845;59.422;17.930;2022-11-24T03:40:38;1.90;99.90
44695;DHT22;32845;59.422;17.930;2022-11-24T03:45:09;1.90;99.90
44695;DHT22;32845;59.422;17.930;2022-11-24T03:49:39;1.90;99.90
44695;DHT22;32845;59.422;17.930;2022-11-24T03:54:10;1.90;99.90
44695;DHT22;32845;59.422;17.930;2022-11-24T03:58:41;1.90;99.90
44695;DHT22;32845;59.422;17.930;2022-11-24T04:03:11;1.90;99.90
44695;DHT22;32845;59.422;17.930;2022-11-24T04:07:55;2.00;99.90
44695;DHT22;32845;59.422;17.930;2022-11-24T04:12:32;2.00;99.90
44695;DHT22;32845;59.422;17.930;2022-11-24T04:17:15;2.00;99.90
44695;DHT22;32845;59.422;17.930;2022-11-24T04:21:45;2.00;99.90
44695;DHT22;32845;59.422;17.930;2022-11-24T04:26:21;2.00;99.90
44695;DHT22;32845;59.422;17.930;2022-11-24T04:30:51;2.00;99.90
44695;DHT22;32845;59.422;17.930;2022-11-24T04:35:22;2.00;99.90
44695;DHT22;32845;59.422;17.930;2022-11-24T04:39:52;2.00;99.90
44695;DHT22;32845;59.422;17.930;2022-11-24T04:44:24;2.00;99.90
44695;DHT22;32845;59.422;17.930;2022-11-24T04:48:55;2.10;99.90
44695;DHT22;32845;59.422;17.930;2022-11-24T04:53:25;2.00;99.90
44695;DHT22;32845;59.422;17.930;2022-11-24T04:57:56;2.00;99.90
44695;DHT22;32845;59.422;17.930;2022-11-24T05:02:26;2.00;99.90
44695;DHT22;32845;59.422;17.930;2022-11-24T05:06:57;2.10;99.90
44695;DHT22;32845;59.422;17.930;2022-11-24T05:11:27;2.10;99.90
44695;DHT22;32845;59.422;17.930;2022-11-24T05:15:58;2.10;99.90
44695;DHT22;32845;59.422;17.930;2022-11-24T05:20:29;2.10;99.90
44695;DHT22;32845;59.422;17.930;2022-11-24T05:25:01;2.10;99.90
44695;DHT22;32845;59.422;17.930;2022-11-24T05:29:32;2.10;99.90
44695;DHT22;32845;59.422;17.930;2022-11-24T05:34:02;2.10;99.90
44695;DHT22;32845;59.422;17.930;2022-11-24T05:38:38;2.20;99.90
44695;DHT22;32845;59.422;17.930;2022-11-24T05:43:11;2.20;99.90
44695;DHT22;32845;59.422;17.930;2022-11-24T05:47:42;2.20;99.90
44695;DHT22;32845;59.422;17.930;2022-11-24T05:52:13;2.20;99.90
44695;DHT22;32845;59.422;17.930;2022-11-24T05:56:43;2.20;99.90
44695;DHT22;32845;59.422;17.930;2022-11-24T06:01:14;2.10;99.90
44695;DHT22;32845;59.422;17.930;2022-11-24T06:05:49;2.10;99.90
44695;DHT22;32845;59.422;17.930;2022-11-24T06:10:20;2.10;99.90
44695;DHT22;32845;59.422;17.930;2022-11-24T06:14:56;2.10;99.90
44695;DHT22;32845;59.422;17.930;2022-11-24T06:19:27;2.10;99.90
44695;DHT22;32845;59.422;17.930;2022-11-24T06:23:57;2.10;99.90
44695;DHT22;32845;59.422;17.930;2022-11-24T06:28:33;2.10;99.90
44695;DHT22;32845;59.422;17.930;2022-11-24T06:33:04;2.10;99.90
44695;DHT22;32845;59.422;17.930;2022-11-24T06:37:43;2.10;99.90
44695;DHT22;32845;59.422;17.930;2022-11-24T06:42:15;2.10;99.90
44695;DHT22;32845;59.422;17.930;2022-11-24T06:46:58;2.10;99.90
44695;DHT22;32845;59.422;17.930;2022-11-24T06:51:28;2.20;99.90
44695;DHT22;32845;59.422;17.930;2022-11-24T06:55:59;2.10;99.90
44695;DHT22;32845;59.422;17.930;2022-11-24T07:00:30;2.10;99.90
44695;DHT22;32845;59.422;17.930;2022-11-24T07:05:03;2.20;99.90
44695;DHT22;32845;59.422;17.930;2022-11-24T07:09:34;2.20;99.90
44695;DHT22;32845;59.422;17.930;2022-11-24T07:14:04;2.10;99.90
44695;DHT22;32845;59.422;17.930;2022-11-24T07:18:40;2.10;99.90
44695;DHT22;32845;59.422;17.930;2022-11-24T07:23:11;2.20;99.90
44695;DHT22;32845;59.422;17.930;2022-11-24T07:27:42;2.20;99.90
44695;DHT22;32845;59.422;17.930;2022-11-24T07:32:12;2.20;99.90
44695;DHT22;32845;59.422;17.930;2022-11-24T07:36:48;2.20;99.90
44695;DHT22;32845;59.422;17.930;2022-11-24T07:41:19;2.30;99.90
44695;DHT22;32845;59.422;17.930;2022-11-24T07:45:55;2.30;99.90
44695;DHT22;32845;59.422;17.930;2022-11-24T07:50:25;2.40;99.90
44695;DHT22;32845;59.422;17.930;2022-11-24T07:54:56;2.40;99.90
44695;DHT22;32845;59.422;17.930;2022-11-24T07:59:26;2.40;99.90
44695;DHT22;32845;59.422;17.930;2022-11-24T08:03:57;2.50;99.90
44695;DHT22;32845;59.422;17.930;2022-11-24T08:08:27;2.50;99.90
44695;DHT22;32845;59.422;17.930;2022-11-24T08:13:02;2.50;99.90
44695;DHT22;32845;59.422;17.930;2022-11-24T08:17:37;2.50;99.90
44695;DHT22;32845;59.422;17.930;2022-11-24T08:22:08;2.60;99.90
44695;DHT22;32845;59.422;17.930;2022-11-24T08:26:44;2.60;99.90
44695;DHT22;32845;59.422;17.930;2022-11-24T08:31:15;2.60;99.90
44695;DHT22;32845;59.422;17.930;2022-11-24T08:35:52;2.60;99.90
44695;DHT22;32845;59.422;17.930;2022-11-24T08:40:23;2.70;99.90
44695;DHT22;32845;59.422;17.930;2022-11-24T08:45:03;2.70;99.90
44695;DHT22;32845;59.422;17.930;2022-11-24T08:49:34;2.70;99.90
44695;DHT22;32845;59.422;17.930;2022-11-24T08:54:05;2.80;99.90
44695;DHT22;32845;59.422;17.930;2022-11-24T08:58:40;2.80;99.90
44695;DHT22;32845;59.422;17.930;2022-11-24T09:03:11;2.80;99.90
44695;DHT22;32845;59.422;17.930;2022-11-24T09:07:41;2.90;99.90
44695;DHT22;32845;59.422;17.930;2022-11-24T09:12:12;2.90;99.90
44695;DHT22;32845;59.422;17.930;2022-11-24T09:16:42;2.90;99.90
44695;DHT22;32845;59.422;17.930;2022-11-24T09:21:14;3.00;99.90
44695;DHT22;32845;59.422;17.930;2022-11-24T09:25:50;3.00;99.90
44695;DHT22;32845;59.422;17.930;2022-11-24T09:30:20;3.00;99.90
44695;DHT22;32845;59.422;17.930;2022-11-24T09:34:52;3.00;99.90
44695;DHT22;32845;59.422;17.930;2022-11-24T09:39:23;3.00;99.90
44695;DHT22;32845;59.422;17.930;2022-11-24T09:48:48;3.10;99.90
44695;DHT22;32845;59.422;17.930;2022-11-24T09:53:36;3.10;99.90
44695;DHT22;32845;59.422;17.930;2022-11-24T09:58:11;3.10;99.90
44695;DHT22;32845;59.422;17.930;2022-11-24T10:02:43;3.10;99.90
44695;DHT22;32845;59.422;17.930;2022-11-24T10:07:28;3.10;99.90
44695;DHT22;32845;59.422;17.930;2022-11-24T10:17:47;3.10;99.90
44695;DHT22;32845;59.422;17.930;2022-11-24T10:30:59;3.10;99.90
44695;DHT22;32845;59.422;17.930;2022-11-24T10:35:46;3.10;99.90
44695;DHT22;32845;59.422;17.930;2022-11-24T10:40:21;3.20;99.90
44695;DHT22;32845;59.422;17.930;2022-11-24T10:44:59;3.20;99.90
44695;DHT22;32845;59.422;17.930;2022-11-24T10:49:31;3.20;99.90
44695;DHT22;32845;59.422;17.930;2022-11-24T10:54:22;3.20;99.90
44695;DHT22;32845;59.422;17.930;2022-11-24T10:58:52;3.20;99.90
44695;DHT22;32845;59.422;17.930;2022-11-24T11:03:23;3.20;99.90
44695;DHT22;32845;59.422;17.930;2022-11-24T11:08:36;3.20;99.90
44695;DHT22;32845;59.422;17.930;2022-11-24T11:12:49;3.20;99.90
44695;DHT22;32845;59.422;17.930;2022-11-24T11:17:35;3.20;99.90
44695;DHT22;32845;59.422;17.930;2022-11-24T11:26:40;3.20;99.90
44695;DHT22;32845;59.422;17.930;2022-11-24T11:31:16;3.20;99.90
44695;DHT22;32845;59.422;17.930;2022-11-24T11:35:51;3.20;99.90
44695;DHT22;32845;59.422;17.930;2022-11-24T11:40:23;3.20;99.90
44695;DHT22;32845;59.422;17.930;2022-11-24T11:44:56;3.20;99.90
44695;DHT22;32845;59.422;17.930;2022-11-24T11:49:28;3.10;99.90
44695;DHT22;32845;59.422;17.930;2022-11-24T12:03:34;3.10;99.90
44695;DHT22;32845;59.422;17.930;2022-11-24T12:22:10;3.10;99.90
44695;DHT22;32845;59.422;17.930;2022-11-24T12:26:59;3.10;99.90
44695;DHT22;32845;59.422;17.930;2022-11-24T12:31:40;3.10;99.90
44695;DHT22;32845;59.422;17.930;2022-11-24T12:36:20;3.20;99.90
44695;DHT22;32845;59.422;17.930;2022-11-24T12:50:12;3.10;99.90
44695;DHT22;32845;59.422;17.930;2022-11-24T12:54:43;3.10;99.90
44695;DHT22;32845;59.422;17.930;2022-11-24T12:59:49;3.10;99.90
44695;DHT22;32845;59.422;17.930;2022-11-24T13:09:08;3.10;99.90
44695;DHT22;32845;59.422;17.930;2022-11-24T13:18:59;3.10;99.90
44695;DHT22;32845;59.422;17.930;2022-11-24T13:23:30;3.10;99.90
44695;DHT22;32845;59.422;17.930;2022-11-24T13:28:52;3.00;99.90
44695;DHT22;32845;59.422;17.930;2022-11-24T13:42:01;3.00;99.90
44695;DHT22;32845;59.422;17.930;2022-11-24T13:51:21;2.90;99.90
44695;DHT22;32845;59.422;17.930;2022-11-24T14:00:32;2.90;99.90
44695;DHT22;32845;59.422;17.930;2022-11-24T14:05:11;2.90;99.90
44695;DHT22;32845;59.422;17.930;2022-11-24T14:09:42;2.90;99.90
44695;DHT22;32845;59.422;17.930;2022-11-24T14:14:20;2.80;99.90
44695;DHT22;32845;59.422;17.930;2022-11-24T14:18:51;2.80;99.90
44695;DHT22;32845;59.422;17.930;2022-11-24T14:23:22;2.80;99.90
44695;DHT22;32845;59.422;17.930;2022-11-24T14:27:52;2.80;99.90
44695;DHT22;32845;59.422;17.930;2022-11-24T14:32:23;2.80;99.90
44695;DHT22;32845;59.422;17.930;2022-11-24T14:36:54;2.80;99.90
44695;DHT22;32845;59.422;17.930;2022-11-24T14:41:25;2.80;99.90
44695;DHT22;32845;59.422;17.930;2022-11-24T14:46:04;2.80;99.90
44695;DHT22;32845;59.422;17.930;2022-11-24T14:50:37;2.80;99.90
44695;DHT22;32845;59.422;17.930;2022-11-24T14:55:28;2.80;99.90
44695;DHT22;32845;59.422;17.930;2022-11-24T15:00:07;2.70;99.90
44695;DHT22;32845;59.422;17.930;2022-11-24T15:04:57;2.70;99.90
44695;DHT22;32845;59.422;17.930;2022-11-24T15:09:29;2.70;99.90
44695;DHT22;32845;59.422;17.930;2022-11-24T15:14:00;2.70;99.90
44695;DHT22;32845;59.422;17.930;2022-11-24T15:23:11;2.70;99.90
44695;DHT22;32845;59.422;17.930;2022-11-24T15:27:46;2.70;99.90
44695;DHT22;32845;59.422;17.930;2022-11-24T15:32:17;2.60;99.90
44695;DHT22;32845;59.422;17.930;2022-11-24T15:36:47;2.60;99.90
44695;DHT22;32845;59.422;17.930;2022-11-24T15:41:19;2.70;99.90
44695;DHT22;32845;59.422;17.930;2022-11-24T15:46:05;2.60;99.90
44695;DHT22;32845;59.422;17.930;2022-11-24T15:50:36;2.60;99.90
44695;DHT22;32845;59.422;17.930;2022-11-24T15:55:16;2.60;99.90
44695;DHT22;32845;59.422;17.930;2022-11-24T15:59:47;2.60;99.90
44695;DHT22;32845;59.422;17.930;2022-11-24T16:04:18;2.60;99.90
44695;DHT22;32845;59.422;17.930;2022-11-24T16:08:57;2.60;99.90
44695;DHT22;32845;59.422;17.930;2022-11-24T16:13:28;2.60;99.90
44695;DHT22;32845;59.422;17.930;2022-11-24T16:17:59;2.60;99.90
44695;DHT22;32845;59.422;17.930;2022-11-24T16:22:29;2.50;99.90
44695;DHT22;32845;59.422;17.930;2022-11-24T16:27:00;2.50;99.90
44695;DHT22;32845;59.422;17.930;2022-11-24T16:31:30;2.50;99.90
44695;DHT22;32845;59.422;17.930;2022-11-24T16:36:01;2.50;99.90
44695;DHT22;32845;59.422;17.930;2022-11-24T16:40:31;2.50;99.90
44695;DHT22;32845;59.422;17.930;2022-11-24T16:45:02;2.50;99.90
44695;DHT22;32845;59.422;17.930;2022-11-24T16:49:33;2.50;99.90
44695;DHT22;32845;59.422;17.930;2022-11-24T16:54:03;2.50;99.90
44695;DHT22;32845;59.422;17.930;2022-11-24T16:58:37;2.50;99.90
44695;DHT22;32845;59.422;17.930;2022-11-24T17:03:08;2.50;99.90
44695;DHT22;32845;59.422;17.930;2022-11-24T17:07:47;2.50;99.90
44695;DHT22;32845;59.422;17.930;2022-11-24T17:12:18;2.50;99.90
44695;DHT22;32845;59.422;17.930;2022-11-24T17:16:48;2.50;99.90
44695;DHT22;32845;59.422;17.930;2022-11-24T17:21:22;2.50;99.90
44695;DHT22;32845;59.422;17.930;2022-11-24T17:25:53;2.40;99.90
44695;DHT22;32845;59.422;17.930;2022-11-24T17:30:30;2.40;99.90
44695;DHT22;32845;59.422;17.930;2022-11-24T17:35:00;2.40;99.90
44695;DHT22;32845;59.422;17.930;2022-11-24T17:39:31;2.40;99.90
44695;DHT22;32845;59.422;17.930;2022-11-24T17:44:01;2.40;99.90
44695;DHT22;32845;59.422;17.930;2022-11-24T17:48:32;2.40;99.90
44695;DHT22;32845;59.422;17.930;2022-11-24T17:53:03;2.40;99.90
44695;DHT22;32845;59.422;17.930;2022-11-24T17:57:43;2.40;99.90
44695;DHT22;32845;59.422;17.930;2022-11-24T18:02:14;2.40;99.90
44695;DHT22;32845;59.422;17.930;2022-11-24T18:06:45;2.40;99.90
44695;DHT22;32845;59.422;17.930;2022-11-24T18:11:19;2.40;99.90
44695;DHT22;32845;59.422;17.930;2022-11-24T18:15:50;2.30;99.90
44695;DHT22;32845;59.422;17.930;2022-11-24T18:20:21;2.30;99.90
44695;DHT22;32845;59.422;17.930;2022-11-24T18:24:51;2.30;99.90
44695;DHT22;32845;59.422;17.930;2022-11-24T18:29:22;2.30;99.90
44695;DHT22;32845;59.422;17.930;2022-11-24T18:33:52;2.40;99.90
44695;DHT22;32845;59.422;17.930;2022-11-24T18:38:28;2.40;99.90
44695;DHT22;32845;59.422;17.930;2022-11-24T18:42:58;2.40;99.90
44695;DHT22;32845;59.422;17.930;2022-11-24T18:47:29;2.40;99.90
44695;DHT22;32845;59.422;17.930;2022-11-24T18:52:00;2.40;99.90
44695;DHT22;32845;59.422;17.930;2022-11-24T18:56:33;2.30;99.90
44695;DHT22;32845;59.422;17.930;2022-11-24T19:01:08;2.30;99.90
44695;DHT22;32845;59.422;17.930;2022-11-24T19:05:54;2.30;99.90
44695;DHT22;32845;59.422;17.930;2022-11-24T19:10:24;2.30;99.90
44695;DHT22;32845;59.422;17.930;2022-11-24T19:14:55;2.30;99.90
44695;DHT22;32845;59.422;17.930;2022-11-24T19:19:25;2.30;99.90
44695;DHT22;32845;59.422;17.930;2022-11-24T19:23:57;2.30;99.90
44695;DHT22;32845;59.422;17.930;2022-11-24T19:28:28;2.30;99.90
44695;DHT22;32845;59.422;17.930;2022-11-24T19:32:59;2.30;99.90
44695;DHT22;32845;59.422;17.930;2022-11-24T19:37:29;2.20;99.90
44695;DHT22;32845;59.422;17.930;2022-11-24T19:42:00;2.20;99.90
44695;DHT22;32845;59.422;17.930;2022-11-24T19:46:30;2.20;99.90
44695;DHT22;32845;59.422;17.930;2022-11-24T19:51:01;2.20;99.90
44695;DHT22;32845;59.422;17.930;2022-11-24T19:55:37;2.20;99.90
44695;DHT22;32845;59.422;17.930;2022-11-24T20:00:08;2.10;99.90
44695;DHT22;32845;59.422;17.930;2022-11-24T20:04:38;2.10;99.90
44695;DHT22;32845;59.422;17.930;2022-11-24T20:09:13;2.10;99.90
44695;DHT22;32845;59.422;17.930;2022-11-24T20:13:44;2.10;99.90
44695;DHT22;32845;59.422;17.930;2022-11-24T20:18:15;2.10;99.90
44695;DHT22;32845;59.422;17.930;2022-11-24T20:22:45;2.10;99.90
44695;DHT22;32845;59.422;17.930;2022-11-24T20:27:16;2.10;99.90
44695;DHT22;32845;59.422;17.930;2022-11-24T20:31:47;2.00;99.90
44695;DHT22;32845;59.422;17.930;2022-11-24T20:36:20;2.10;99.90
44695;DHT22;32845;59.422;17.930;2022-11-24T20:40:50;2.00;99.90
44695;DHT22;32845;59.422;17.930;2022-11-24T20:45:26;2.00;99.90
44695;DHT22;32845;59.422;17.930;2022-11-24T20:49:56;2.00;99.90
44695;DHT22;32845;59.422;17.930;2022-11-24T20:54:27;2.00;99.90
44695;DHT22;32845;59.422;17.930;2022-11-24T20:58:58;2.00;99.90
44695;DHT22;32845;59.422;17.930;2022-11-24T21:03:28;2.00;99.90
44695;DHT22;32845;59.422;17.930;2022-11-24T21:08:04;2.00;99.90
44695;DHT22;32845;59.422;17.930;2022-11-24T21:12:34;2.00;99.90
44695;DHT22;32845;59.422;17.930;2022-11-24T21:17:05;2.00;99.90
44695;DHT22;32845;59.422;17.930;2022-11-24T21:21:35;2.00;99.90
44695;DHT22;32845;59.422;17.930;2022-11-24T21:26:07;2.00;99.90
44695;DHT22;32845;59.422;17.930;2022-11-24T21:30:38;2.00;99.90
44695;DHT22;32845;59.422;17.930;2022-11-24T21:35:09;2.00;99.90
44695;DHT22;32845;59.422;17.930;2022-11-24T21:39:39;2.00;99.90
44695;DHT22;32845;59.422;17.930;2022-11-24T21:44:13;2.00;99.90
44695;DHT22;32845;59.422;17.930;2022-11-24T21:48:44;2.00;99.90
44695;DHT22;32845;59.422;17.930;2022-11-24T21:53:15;2.00;99.90
44695;DHT22;32845;59.422;17.930;2022-11-24T21:57:55;1.90;99.90
44695;DHT22;32845;59.422;17.930;2022-11-24T22:02:26;1.90;99.90
44695;DHT22;32845;59.422;17.930;2022-11-24T22:06:56;1.90;99.90
44695;DHT22;32845;59.422;17.930;2022-11-24T22:11:27;1.90;99.90
44695;DHT22;32845;59.422;17.930;2022-11-24T22:16:07;1.90;99.90
44695;DHT22;32845;59.422;17.930;2022-11-24T22:20:38;1.90;99.90
44695;DHT22;32845;59.422;17.930;2022-11-24T22:25:08;1.90;99.90
44695;DHT22;32845;59.422;17.930;2022-11-24T22:29:39;1.90;99.90
44695;DHT22;32845;59.422;17.930;2022-11-24T22:34:09;1.90;99.90
44695;DHT22;32845;59.422;17.930;2022-11-24T22:38:40;1.90;99.90
44695;DHT22;32845;59.422;17.930;2022-11-24T22:43:11;1.90;99.90
44695;DHT22;32845;59.422;17.930;2022-11-24T22:47:42;2.00;99.90
44695;DHT22;32845;59.422;17.930;2022-11-24T22:52:12;1.90;99.90
44695;DHT22;32845;59.422;17.930;2022-11-24T22:56:48;1.90;99.90
44695;DHT22;32845;59.422;17.930;2022-11-24T23:01:20;1.90;99.90
44695;DHT22;32845;59.422;17.930;2022-11-24T23:06:03;1.90;99.90
44695;DHT22;32845;59.422;17.930;2022-11-24T23:10:34;1.80;99.90
44695;DHT22;32845;59.422;17.930;2022-11-24T23:15:04;1.80;99.90
44695;DHT22;32845;59.422;17.930;2022-11-24T23:19:35;1.80;99.90
44695;DHT22;32845;59.422;17.930;2022-11-24T23:24:06;1.80;99.90
44695;DHT22;32845;59.422;17.930;2022-11-24T23:28:37;1.80;99.90
44695;DHT22;32845;59.422;17.930;2022-11-24T23:33:08;1.70;99.90
44695;DHT22;32845;59.422;17.930;2022-11-24T23:37:38;1.70;99.90
44695;DHT22;32845;59.422;17.930;2022-11-24T23:42:11;1.70;99.90
44695;DHT22;32845;59.422;17.930;2022-11-24T23:46:46;1.70;99.90
44695;DHT22;32845;59.422;17.930;2022-11-24T23:51:18;1.70;99.90
44695;DHT22;32845;59.422;17.930;2022-11-24T23:55:52;1.60;99.90
